Terminal Aerodrome Forecast
Issued by NWS

Home | Current Version | Previous Version | Text Only | Print | Product List | Glossary On
Versions: 1 2 3 4 5 6 7 8 9 10 11 12 13 14 15 16
045
FTUS43 KILX 270520
TAFDEC
TAF
KDEC 270520Z 2706/2806 20007KT P6SM BKN100
     FM271500 17009KT P6SM BKN070
     FM272200 15011KT P6SM BKN050=

USA.gov is the U.S. government's official web portal to all federal, state and local government web resources and services.